Time;durP1;ratioP1;P1;durP2;ratioP2;P2;SDS_P1;SDS_P2;PMS_P1;PMS_P2;Temp;Humidity;BMP_temperature;BMP_pressure;BME280_temperature;BME280_humidity;BME280_pressure;Samples;Min_cycle;Max_cycle;Signal;HPM_P1;HPM_P2
2022/02/01 00:01:25;;;;;;;7.07;2.50;;;5.60;99.90;;;;;;5030557;28;20446;-72
2022/02/01 00:04:19;;;;;;;4.20;2.45;;;5.50;99.90;;;;;;5029117;28;20332;-72
2022/02/01 00:07:14;;;;;;;3.00;2.00;;;5.40;99.90;;;;;;5026225;28;20221;-72
2022/02/01 00:10:09;;;;;;;3.55;2.30;;;5.40;99.90;;;;;;5030149;28;20569;-72
2022/02/01 00:13:06;;;;;;;6.22;2.63;;;5.40;99.90;;;;;;5033788;28;20205;-72
2022/02/01 00:19:19;;;;;;;5.85;2.58;;;5.50;99.90;;;;;;5012411;28;20611;-72
2022/02/01 00:34:35;;;;;;;7.72;3.00;;;5.30;99.90;;;;;;5033687;28;20586;-72
2022/02/01 00:37:25;;;;;;;7.00;3.38;;;5.30;99.90;;;;;;5029529;28;20220;-72
2022/02/01 00:40:12;;;;;;;5.87;3.60;;;5.40;99.90;;;;;;5035330;28;20202;-72
2022/02/01 00:42:58;;;;;;;10.63;3.78;;;5.50;99.90;;;;;;5037628;28;20422;-72
2022/02/01 00:45:43;;;;;;;6.35;4.20;;;5.50;99.90;;;;;;5018772;28;20331;-71
2022/02/01 00:48:30;;;;;;;9.43;3.90;;;5.50;99.90;;;;;;5022877;28;20228;-72
2022/02/01 00:51:15;;;;;;;8.10;3.28;;;5.50;99.90;;;;;;5029667;28;20600;-71
2022/02/01 00:54:02;;;;;;;5.17;3.90;;;5.40;99.90;;;;;;5027029;28;20225;-71
2022/02/01 00:56:48;;;;;;;14.88;4.18;;;5.50;99.90;;;;;;5024353;28;20929;-71
2022/02/01 00:59:33;;;;;;;8.57;2.97;;;5.50;99.90;;;;;;5030296;28;20209;-72
2022/02/01 01:02:19;;;;;;;7.88;3.92;;;5.40;99.90;;;;;;5027915;28;20460;-71
2022/02/01 01:05:06;;;;;;;6.90;3.78;;;5.40;99.90;;;;;;5025020;28;20240;-72
2022/02/01 01:07:52;;;;;;;7.93;3.40;;;5.40;99.90;;;;;;5028854;28;20234;-71
2022/02/01 01:10:40;;;;;;;6.60;2.90;;;5.40;99.90;;;;;;5029000;28;20209;-71
2022/02/01 01:13:53;;;;;;;5.85;3.05;;;5.40;99.90;;;;;;5029742;28;20633;-71
2022/02/01 01:17:09;;;;;;;16.02;3.85;;;5.40;99.90;;;;;;5023260;28;20290;-71
2022/02/01 01:43:30;;;;;;;10.32;4.78;;;5.30;99.90;;;;;;5024949;28;20193;-71
2022/02/01 01:45:04;;;;;;;15.73;4.32;;;5.30;99.90;;;;;;5023377;28;20339;-71
2022/02/01 01:53:59;;;;;;;26.30;6.05;;;5.20;99.90;;;;;;5025180;28;20280;-71
2022/02/01 01:56:45;;;;;;;23.35;4.85;;;5.10;99.90;;;;;;5027511;28;20232;-71
2022/02/01 01:59:34;;;;;;;29.98;5.82;;;5.10;99.90;;;;;;5028271;28;20209;-71
2022/02/01 02:02:20;;;;;;;15.70;5.05;;;5.10;99.90;;;;;;5030346;28;20201;-71
2022/02/01 02:05:06;;;;;;;14.02;4.75;;;5.10;99.90;;;;;;5027512;28;20198;-71
2022/02/01 02:07:51;;;;;;;30.77;5.65;;;5.10;99.90;;;;;;5029836;28;20225;-71
2022/02/01 02:10:38;;;;;;;27.95;7.10;;;5.10;99.90;;;;;;5022667;28;20690;-72
2022/02/01 02:16:30;;;;;;;29.42;6.00;;;5.20;99.90;;;;;;5029044;28;20914;-72
2022/02/01 02:19:16;;;;;;;20.15;6.05;;;5.20;99.90;;;;;;5029540;28;20269;-72
2022/02/01 02:22:05;;;;;;;19.15;5.88;;;5.10;99.90;;;;;;5032221;28;20221;-71
2022/02/01 02:24:51;;;;;;;24.67;6.32;;;5.20;99.90;;;;;;5022366;28;20195;-71
2022/02/01 02:27:37;;;;;;;27.83;5.72;;;5.10;99.90;;;;;;5031575;28;20714;-72
2022/02/01 02:30:23;;;;;;;30.52;7.57;;;5.10;99.90;;;;;;5033670;28;20204;-71
2022/02/01 02:33:11;;;;;;;31.00;7.72;;;5.10;99.90;;;;;;5031707;28;20694;-72
2022/02/01 02:36:03;;;;;;;25.55;6.50;;;5.10;99.90;;;;;;5026129;28;20205;-72
2022/02/01 02:38:56;;;;;;;23.33;6.40;;;5.10;99.90;;;;;;5022923;28;20333;-71
2022/02/01 02:41:51;;;;;;;26.67;5.82;;;5.10;99.90;;;;;;5025621;28;20523;-71
2022/02/01 02:47:42;;;;;;;32.38;7.03;;;5.00;99.90;;;;;;5024964;28;20268;-71
2022/02/01 02:50:28;;;;;;;24.73;5.45;;;4.90;99.90;;;;;;5027996;28;20607;-71
2022/02/01 02:53:13;;;;;;;26.95;6.10;;;4.90;99.90;;;;;;5033143;28;20567;-71
2022/02/01 02:56:07;;;;;;;22.60;5.35;;;4.90;99.90;;;;;;5020319;28;20218;-71
2022/02/01 02:58:53;;;;;;;28.17;4.97;;;4.90;99.90;;;;;;5027579;28;20283;-72
2022/02/01 03:01:39;;;;;;;21.25;5.68;;;4.90;99.90;;;;;;5032552;28;20333;-71
2022/02/01 03:04:27;;;;;;;27.63;5.50;;;4.90;99.90;;;;;;5028083;28;20207;-72
2022/02/01 03:07:12;;;;;;;24.30;4.80;;;4.80;99.90;;;;;;5030313;28;20233;-71
2022/02/01 03:09:58;;;;;;;28.08;4.60;;;4.80;99.90;;;;;;5031112;28;20499;-71
2022/02/01 03:13:06;;;;;;;22.08;4.50;;;4.80;99.90;;;;;;5025096;28;20201;-71
2022/02/01 03:15:58;;;;;;;22.77;5.70;;;4.70;99.90;;;;;;5025425;28;20252;-71
2022/02/01 03:21:47;;;;;;;31.52;7.30;;;4.70;99.90;;;;;;5026933;28;20205;-72
2022/02/01 03:24:33;;;;;;;24.85;5.78;;;4.70;99.90;;;;;;5027200;28;20702;-71
2022/02/01 03:27:20;;;;;;;13.45;4.57;;;4.70;99.90;;;;;;5023311;28;20232;-71
2022/02/01 03:30:09;;;;;;;29.45;6.28;;;4.70;99.90;;;;;;5026621;28;20206;-71
2022/02/01 03:32:55;;;;;;;24.95;5.10;;;4.70;99.90;;;;;;5025637;28;20202;-71
2022/02/01 03:35:40;;;;;;;31.80;5.97;;;4.70;99.90;;;;;;5024597;28;20218;-71
2022/02/01 03:38:26;;;;;;;16.25;4.88;;;4.70;99.90;;;;;;5029047;28;20205;-71
2022/02/01 03:41:12;;;;;;;17.23;4.72;;;4.80;99.90;;;;;;5025188;28;20217;-71
2022/02/01 03:44:00;;;;;;;24.58;5.95;;;4.70;99.90;;;;;;5025373;28;20205;-71
2022/02/01 03:46:57;;;;;;;23.33;5.18;;;4.70;99.90;;;;;;5024893;28;20272;-71
2022/02/01 03:49:43;;;;;;;22.13;5.38;;;4.70;99.90;;;;;;5024524;28;20201;-71
2022/02/01 03:52:29;;;;;;;21.60;5.20;;;4.70;99.90;;;;;;5024713;28;20209;-71
2022/02/01 03:55:15;;;;;;;33.65;5.13;;;4.70;99.90;;;;;;5023881;28;20575;-71
2022/02/01 03:58:00;;;;;;;28.77;5.10;;;4.60;99.90;;;;;;5029446;28;20222;-71
2022/02/01 04:00:46;;;;;;;20.25;5.30;;;4.60;99.90;;;;;;5019555;28;20210;-71
2022/02/01 04:03:33;;;;;;;29.50;4.65;;;4.60;99.90;;;;;;5024110;28;21861;-71
2022/02/01 04:06:19;;;;;;;17.08;4.18;;;4.60;99.90;;;;;;5027689;28;20710;-71
2022/02/01 04:09:04;;;;;;;20.45;5.60;;;4.60;99.90;;;;;;5026846;28;20615;-71
2022/02/01 04:11:50;;;;;;;24.83;4.53;;;4.60;99.90;;;;;;5023960;28;20206;-71
2022/02/01 04:14:36;;;;;;;26.02;5.18;;;4.70;99.90;;;;;;5026509;28;20579;-71
2022/02/01 04:17:22;;;;;;;16.92;4.50;;;4.60;99.90;;;;;;5029538;28;20785;-71
2022/02/01 04:20:09;;;;;;;14.77;4.20;;;4.70;99.90;;;;;;5028478;28;20580;-72
2022/02/01 04:22:55;;;;;;;19.13;5.03;;;4.70;99.90;;;;;;5023037;28;20206;-71
2022/02/01 04:25:41;;;;;;;23.73;6.38;;;4.70;99.90;;;;;;5025607;28;20268;-71
2022/02/01 04:28:26;;;;;;;25.95;4.88;;;4.70;99.90;;;;;;5029196;28;20202;-71
2022/02/01 04:31:12;;;;;;;20.35;5.05;;;4.80;99.90;;;;;;5028183;28;20232;-72
2022/02/01 04:33:58;;;;;;;24.55;6.22;;;4.70;99.90;;;;;;5019902;28;20786;-71
2022/02/01 04:36:45;;;;;;;17.27;4.53;;;4.50;99.90;;;;;;5025555;28;20344;-71
2022/02/01 04:39:31;;;;;;;13.27;3.40;;;4.50;99.90;;;;;;5030869;28;20859;-71
2022/02/01 04:42:17;;;;;;;18.77;4.53;;;4.40;99.90;;;;;;5044335;28;20284;-72
2022/02/01 04:45:04;;;;;;;14.30;3.65;;;4.50;99.90;;;;;;5022697;28;20245;-71
2022/02/01 04:47:50;;;;;;;20.40;4.20;;;4.50;99.90;;;;;;5028533;28;20221;-71
2022/02/01 04:50:38;;;;;;;17.55;3.83;;;4.60;99.90;;;;;;5028932;28;20313;-71
2022/02/01 04:53:25;;;;;;;15.75;4.28;;;4.60;99.90;;;;;;5026442;28;20237;-71
2022/02/01 04:56:11;;;;;;;25.63;6.22;;;4.60;99.90;;;;;;5024586;28;20222;-71
2022/02/01 04:58:57;;;;;;;15.02;5.40;;;4.60;99.90;;;;;;5020045;28;20205;-72
2022/02/01 05:01:42;;;;;;;23.25;4.55;;;4.60;99.90;;;;;;5024010;28;20198;-71
2022/02/01 05:04:27;;;;;;;14.95;4.15;;;4.60;99.90;;;;;;5023547;28;20239;-72
2022/02/01 05:07:13;;;;;;;21.02;5.00;;;4.60;99.90;;;;;;5025570;28;20741;-71
2022/02/01 05:10:00;;;;;;;17.45;5.10;;;4.60;99.90;;;;;;5025692;28;20594;-72
2022/02/01 05:12:46;;;;;;;27.42;3.95;;;4.50;99.90;;;;;;5021011;28;20225;-71
2022/02/01 05:15:32;;;;;;;15.77;3.65;;;4.60;99.90;;;;;;5029911;28;20604;-71
2022/02/01 05:18:21;;;;;;;18.20;4.72;;;4.60;99.90;;;;;;5029739;28;20229;-72
2022/02/01 05:21:11;;;;;;;18.23;3.58;;;4.60;99.90;;;;;;5026375;28;20252;-71
2022/02/01 05:23:57;;;;;;;12.77;3.33;;;4.60;99.90;;;;;;5024029;28;20578;-71
2022/02/01 05:26:44;;;;;;;21.00;3.83;;;4.40;99.90;;;;;;5037726;28;20345;-72
2022/02/01 05:29:30;;;;;;;21.40;4.82;;;4.50;99.90;;;;;;5029412;28;20225;-72
2022/02/01 05:32:24;;;;;;;21.48;5.00;;;4.50;99.90;;;;;;5022720;28;20205;-71
2022/02/01 05:35:10;;;;;;;17.80;3.55;;;4.50;99.90;;;;;;5024755;28;20229;-71
2022/02/01 05:37:56;;;;;;;16.47;3.03;;;4.50;99.90;;;;;;5030832;28;20289;-72
2022/02/01 05:40:41;;;;;;;26.08;3.92;;;4.50;99.90;;;;;;5031593;28;20447;-71
2022/02/01 05:43:29;;;;;;;28.38;4.15;;;4.40;99.90;;;;;;5028393;28;20205;-71
2022/02/01 05:46:17;;;;;;;23.13;3.92;;;4.40;99.90;;;;;;5031010;28;20221;-71
2022/02/01 05:49:03;;;;;;;22.92;4.80;;;4.30;99.90;;;;;;5027468;28;20683;-71
2022/02/01 05:51:50;;;;;;;17.98;3.35;;;4.30;99.90;;;;;;5023058;28;20686;-71
2022/02/01 05:54:37;;;;;;;16.45;4.35;;;4.30;99.90;;;;;;5026088;28;20228;-71
2022/02/01 05:57:25;;;;;;;22.88;5.68;;;4.30;99.90;;;;;;5026392;28;20225;-71
2022/02/01 06:00:15;;;;;;;23.92;4.15;;;4.30;99.90;;;;;;5022705;28;20209;-71
2022/02/01 06:03:01;;;;;;;14.13;3.58;;;4.30;99.90;;;;;;5027365;28;20215;-71
2022/02/01 06:05:47;;;;;;;15.13;3.42;;;4.40;99.90;;;;;;5024969;28;20233;-71
2022/02/01 06:08:32;;;;;;;12.68;2.85;;;4.40;99.90;;;;;;5026168;28;20422;-71
2022/02/01 06:11:18;;;;;;;11.43;3.15;;;4.40;99.90;;;;;;5029997;28;20205;-71
2022/02/01 06:14:04;;;;;;;12.32;3.55;;;4.40;99.90;;;;;;5025242;28;20735;-71
2022/02/01 06:16:51;;;;;;;17.10;3.30;;;4.50;99.90;;;;;;5024537;28;20236;-71
2022/02/01 06:19:37;;;;;;;16.58;3.67;;;4.50;99.90;;;;;;5026124;28;20213;-71
2022/02/01 06:22:23;;;;;;;17.60;3.35;;;4.50;99.90;;;;;;5026718;28;20271;-71
2022/02/01 06:25:10;;;;;;;11.52;3.10;;;4.60;99.90;;;;;;5029800;28;20349;-72
2022/02/01 06:27:56;;;;;;;30.98;3.67;;;4.60;99.90;;;;;;5028840;28;20592;-72
2022/02/01 06:30:42;;;;;;;11.55;2.50;;;4.60;99.90;;;;;;5019953;28;20210;-72
2022/02/01 06:33:30;;;;;;;16.13;3.28;;;4.50;99.90;;;;;;5023492;28;20200;-71
2022/02/01 06:36:16;;;;;;;16.55;3.35;;;4.60;99.90;;;;;;5030796;28;21308;-71
2022/02/01 06:39:02;;;;;;;14.20;3.22;;;4.50;99.90;;;;;;5033138;28;20213;-71
2022/02/01 06:41:47;;;;;;;9.87;3.10;;;4.40;99.90;;;;;;5025915;28;20210;-71
2022/02/01 06:44:33;;;;;;;12.70;3.05;;;4.50;99.90;;;;;;5030406;28;20464;-71
2022/02/01 06:47:19;;;;;;;19.70;3.72;;;4.60;99.90;;;;;;5024446;28;20237;-71
2022/02/01 06:50:07;;;;;;;15.52;2.92;;;4.60;99.90;;;;;;5026876;28;20349;-71
2022/02/01 06:52:56;;;;;;;14.73;3.78;;;4.60;99.90;;;;;;5023707;28;20794;-71
2022/02/01 06:55:55;;;;;;;10.52;2.45;;;4.60;99.90;;;;;;5024607;28;20230;-71
2022/02/01 06:58:41;;;;;;;18.05;4.03;;;4.60;99.90;;;;;;5029727;28;20221;-72
2022/02/01 07:01:28;;;;;;;18.00;3.80;;;4.70;99.90;;;;;;5028832;28;20205;-72
2022/02/01 07:04:14;;;;;;;15.90;2.58;;;4.70;99.90;;;;;;5031677;28;20205;-71
2022/02/01 07:07:01;;;;;;;23.70;4.72;;;4.70;99.90;;;;;;5028396;28;20276;-71
2022/02/01 07:09:47;;;;;;;13.70;4.78;;;4.70;99.90;;;;;;5024744;28;20681;-71
2022/02/01 07:12:33;;;;;;;18.50;5.40;;;4.70;99.90;;;;;;5026218;28;20679;-71
2022/02/01 07:15:18;;;;;;;25.40;5.80;;;4.70;99.90;;;;;;5030149;28;20218;-71
2022/02/01 07:18:04;;;;;;;21.83;10.00;;;4.80;99.90;;;;;;5024095;28;20237;-71
2022/02/01 07:20:50;;;;;;;13.48;4.10;;;4.80;99.90;;;;;;5027518;28;20441;-71
2022/02/01 07:23:38;;;;;;;18.23;5.18;;;4.70;99.90;;;;;;5028719;28;20260;-71
2022/02/01 07:26:24;;;;;;;14.93;2.97;;;4.60;99.90;;;;;;5028716;28;20218;-72
2022/02/01 07:29:10;;;;;;;10.40;3.33;;;4.60;99.90;;;;;;5026385;28;20209;-71
2022/02/01 07:31:56;;;;;;;18.67;3.53;;;4.60;99.90;;;;;;5024212;28;20214;-71
2022/02/01 07:34:41;;;;;;;23.60;6.90;;;4.70;99.90;;;;;;5022381;28;20202;-71
2022/02/01 07:37:27;;;;;;;21.80;5.88;;;4.70;99.90;;;;;;5029623;28;20225;-72
2022/02/01 07:40:15;;;;;;;22.48;5.40;;;4.80;99.90;;;;;;5027865;28;20580;-71
2022/02/01 07:43:01;;;;;;;12.15;3.80;;;4.80;99.90;;;;;;5023775;28;20205;-71
2022/02/01 07:45:48;;;;;;;23.52;4.40;;;4.90;99.90;;;;;;5018635;28;20907;-71
2022/02/01 07:48:33;;;;;;;15.52;4.97;;;4.90;99.90;;;;;;5017636;28;20572;-71
2022/02/01 07:51:19;;;;;;;19.55;3.03;;;4.90;99.90;;;;;;5016163;28;20246;-71
2022/02/01 07:54:04;;;;;;;18.95;4.40;;;4.90;99.90;;;;;;5027726;28;20330;-71
2022/02/01 07:56:51;;;;;;;12.82;3.38;;;4.90;99.90;;;;;;5021084;28;20233;-71
2022/02/01 07:59:38;;;;;;;16.27;3.47;;;4.90;99.90;;;;;;5025239;28;20368;-71
2022/02/01 08:02:25;;;;;;;14.55;5.38;;;4.80;99.90;;;;;;5018390;28;20349;-71
2022/02/01 08:05:11;;;;;;;13.95;4.50;;;4.90;99.90;;;;;;5034545;28;20217;-71
2022/02/01 08:07:58;;;;;;;12.52;2.80;;;4.90;99.90;;;;;;5038989;28;20237;-71
2022/02/01 08:10:48;;;;;;;10.70;3.35;;;4.90;99.90;;;;;;5022195;28;20622;-71
2022/02/01 08:16:58;;;;;;;10.30;2.67;;;4.90;99.90;;;;;;4978360;28;20379;-71
2022/02/01 08:19:56;;;;;;;7.50;2.30;;;5.00;99.90;;;;;;5030786;28;20201;-71
2022/02/01 08:23:01;;;;;;;29.60;11.70;;;5.00;99.90;;;;;;5033769;28;20674;-71
2022/02/01 08:25:47;;;;;;;9.77;2.63;;;5.00;99.90;;;;;;5027969;28;20435;-71
2022/02/01 08:28:33;;;;;;;9.23;3.90;;;4.90;99.90;;;;;;5021511;28;20217;-71
2022/02/01 08:31:20;;;;;;;17.30;3.35;;;5.00;99.90;;;;;;5028343;28;20501;-71
2022/02/01 08:34:07;;;;;;;16.45;5.32;;;5.00;99.90;;;;;;5039134;28;20213;-71
2022/02/01 08:36:52;;;;;;;35.22;8.73;;;5.00;99.90;;;;;;5037487;28;20232;-71
2022/02/01 08:39:38;;;;;;;12.23;3.70;;;5.00;99.90;;;;;;5030119;28;20333;-71
2022/02/01 08:42:24;;;;;;;11.57;4.07;;;5.00;99.90;;;;;;5026169;28;20209;-71
2022/02/01 08:45:10;;;;;;;19.33;7.90;;;5.00;99.90;;;;;;5021121;28;20225;-71
2022/02/01 08:47:58;;;;;;;17.52;4.75;;;5.00;99.90;;;;;;5040623;28;20275;-71
2022/02/01 08:50:44;;;;;;;12.50;2.70;;;5.10;99.90;;;;;;5028899;28;20212;-71
2022/02/01 08:53:42;;;;;;;10.38;2.33;;;5.10;99.90;;;;;;5035125;28;20288;-70
2022/02/01 08:59:32;;;;;;;8.13;2.30;;;5.10;99.90;;;;;;5035570;28;20235;-71
2022/02/01 09:02:20;;;;;;;15.15;3.50;;;5.10;99.90;;;;;;5041040;28;20205;-71
2022/02/01 09:05:08;;;;;;;7.13;3.10;;;5.10;99.90;;;;;;5029939;28;20260;-71
2022/02/01 09:07:54;;;;;;;7.97;2.85;;;5.20;99.90;;;;;;5032716;28;20245;-71
2022/02/01 09:10:41;;;;;;;9.75;2.97;;;5.30;99.90;;;;;;5032971;28;20204;-71
2022/02/01 09:13:27;;;;;;;10.80;3.25;;;5.20;99.90;;;;;;5041763;28;20325;-70
2022/02/01 09:16:12;;;;;;;13.73;3.38;;;5.20;99.90;;;;;;5040105;28;20597;-70
2022/02/01 09:18:58;;;;;;;13.13;3.57;;;5.20;99.90;;;;;;5036507;28;20213;-71
2022/02/01 09:21:45;;;;;;;9.40;4.20;;;5.20;99.90;;;;;;5039815;28;20443;-70
2022/02/01 09:24:30;;;;;;;9.40;3.75;;;5.20;99.90;;;;;;5035196;28;20209;-70
2022/02/01 09:27:16;;;;;;;9.40;3.90;;;5.20;99.90;;;;;;5042632;28;20224;-70
2022/02/01 09:30:02;;;;;;;11.63;2.83;;;5.20;99.90;;;;;;5043970;28;20625;-71
2022/02/01 09:32:48;;;;;;;10.80;4.18;;;5.20;99.90;;;;;;5031660;28;20225;-71
2022/02/01 09:35:33;;;;;;;15.75;5.45;;;5.10;99.90;;;;;;5029177;28;20205;-71
2022/02/01 09:38:20;;;;;;;9.93;4.47;;;5.00;99.90;;;;;;5028325;28;20707;-72
2022/02/01 09:41:07;;;;;;;21.10;7.05;;;5.00;99.90;;;;;;5032269;28;20299;-72
2022/02/01 09:43:53;;;;;;;17.33;4.50;;;5.10;99.90;;;;;;5026831;28;20597;-70
2022/02/01 09:46:39;;;;;;;9.70;3.00;;;5.20;99.90;;;;;;5028476;28;20506;-70
2022/02/01 09:49:26;;;;;;;6.97;2.70;;;5.30;99.90;;;;;;5030828;28;20256;-71
2022/02/01 09:52:11;;;;;;;25.80;4.70;;;5.40;99.90;;;;;;5030102;28;20205;-71
2022/02/01 09:54:58;;;;;;;18.02;3.00;;;5.40;99.90;;;;;;5028053;28;20287;-72
2022/02/01 09:57:45;;;;;;;7.65;3.03;;;5.40;99.90;;;;;;5030322;28;20729;-71
2022/02/01 10:00:35;;;;;;;20.58;2.90;;;5.40;99.90;;;;;;5030205;28;20205;-72
2022/02/01 10:03:22;;;;;;;12.30;3.47;;;5.40;99.90;;;;;;5026941;28;20583;-72
2022/02/01 10:06:09;;;;;;;11.80;2.58;;;5.40;99.90;;;;;;5036121;28;20202;-71
2022/02/01 10:09:04;;;;;;;11.40;3.50;;;5.40;99.90;;;;;;5033516;28;20684;-72
2022/02/01 10:11:51;;;;;;;16.48;3.42;;;5.30;99.90;;;;;;5030540;28;20689;-73
2022/02/01 10:14:41;;;;;;;9.93;3.15;;;5.30;99.90;;;;;;5028465;28;20212;-72
2022/02/01 10:17:37;;;;;;;7.30;2.75;;;5.30;99.90;;;;;;5048567;22;20229;-77
2022/02/01 10:20:34;;;;;;;19.15;2.55;;;5.30;99.90;;;;;;5033922;28;20359;-74
2022/02/01 10:23:22;;;;;;;9.52;2.90;;;5.10;99.90;;;;;;5026594;28;20205;-74
2022/02/01 10:26:10;;;;;;;10.65;2.42;;;5.10;99.90;;;;;;5035534;28;20200;-73
2022/02/01 10:29:07;;;;;;;11.93;3.03;;;5.20;99.90;;;;;;5015170;28;20288;-74
2022/02/01 10:31:56;;;;;;;7.50;2.75;;;5.20;99.90;;;;;;5013478;28;20219;-74
2022/02/01 10:34:45;;;;;;;8.55;3.30;;;5.30;99.90;;;;;;5008119;28;20202;-74
2022/02/01 10:37:30;;;;;;;10.35;2.97;;;5.30;99.90;;;;;;5013403;28;20302;-74
2022/02/01 10:40:16;;;;;;;14.55;3.80;;;5.30;99.90;;;;;;5015619;28;20788;-74
2022/02/01 10:43:04;;;;;;;13.10;3.00;;;5.30;99.90;;;;;;5010822;28;20304;-74
2022/02/01 10:45:53;;;;;;;14.57;2.95;;;5.30;99.90;;;;;;5015353;28;20207;-75
2022/02/01 10:48:40;;;;;;;11.93;2.60;;;5.30;99.90;;;;;;5015815;28;20230;-74
2022/02/01 10:51:27;;;;;;;11.02;3.10;;;5.20;99.90;;;;;;5012213;28;20523;-74
2022/02/01 10:54:13;;;;;;;12.77;3.17;;;5.20;99.90;;;;;;5014820;28;20210;-74
2022/02/01 10:56:59;;;;;;;9.13;3.55;;;5.20;99.90;;;;;;5015827;28;20229;-74
2022/02/01 10:59:45;;;;;;;13.00;3.60;;;5.10;99.90;;;;;;5015270;28;20283;-74
2022/02/01 11:02:33;;;;;;;21.90;5.40;;;5.10;99.90;;;;;;5015395;28;20336;-74
2022/02/01 11:05:20;;;;;;;15.18;3.97;;;5.10;99.90;;;;;;5014416;28;20574;-74
2022/02/01 11:08:07;;;;;;;11.82;3.30;;;4.90;99.90;;;;;;5009040;28;20218;-73
2022/02/01 11:10:53;;;;;;;17.70;3.67;;;4.80;99.90;;;;;;5015155;28;20214;-74
2022/02/01 11:13:40;;;;;;;12.38;2.65;;;4.70;99.90;;;;;;5011560;28;20218;-74
2022/02/01 11:16:28;;;;;;;12.15;3.00;;;4.60;99.90;;;;;;5014884;28;20229;-74
2022/02/01 11:19:15;;;;;;;9.63;2.42;;;4.60;99.90;;;;;;5011578;28;20214;-74
2022/02/01 11:22:01;;;;;;;9.90;3.05;;;4.60;99.90;;;;;;5012880;28;20710;-73
2022/02/01 11:24:52;;;;;;;10.20;2.85;;;4.40;99.90;;;;;;5009276;28;20249;-74
2022/02/01 11:27:47;;;;;;;8.68;3.33;;;4.40;99.90;;;;;;5010244;28;20218;-73
2022/02/01 11:30:36;;;;;;;12.88;2.97;;;4.50;99.90;;;;;;5011954;28;20214;-73
2022/02/01 11:33:21;;;;;;;13.52;3.20;;;4.50;99.90;;;;;;5011844;28;20687;-73
2022/02/01 11:36:10;;;;;;;20.40;3.78;;;4.40;99.90;;;;;;5017935;28;20690;-74
2022/02/01 11:38:59;;;;;;;13.25;3.83;;;4.40;99.90;;;;;;5013586;28;20203;-74
2022/02/01 11:41:45;;;;;;;13.48;3.47;;;4.30;99.90;;;;;;5010604;28;20226;-74
2022/02/01 11:44:36;;;;;;;7.85;3.15;;;4.30;99.90;;;;;;5016341;28;20337;-74
2022/02/01 11:47:33;;;;;;;7.38;3.03;;;4.20;99.90;;;;;;5015100;28;20651;-74
2022/02/01 11:50:20;;;;;;;12.50;2.83;;;4.20;99.90;;;;;;5008308;28;20213;-74
2022/02/01 11:53:07;;;;;;;7.82;3.20;;;4.20;99.90;;;;;;5015418;28;20205;-72
2022/02/01 11:55:54;;;;;;;17.50;3.33;;;4.20;99.90;;;;;;5012650;28;20214;-72
2022/02/01 11:58:42;;;;;;;7.70;3.33;;;4.10;99.90;;;;;;5011957;28;20229;-72
2022/02/01 12:01:31;;;;;;;17.38;3.72;;;4.10;99.90;;;;;;5007081;28;20695;-72
2022/02/01 12:04:18;;;;;;;14.10;3.60;;;4.10;99.90;;;;;;5010563;28;20823;-72
2022/02/01 12:07:07;;;;;;;11.10;3.53;;;4.20;99.90;;;;;;5000515;28;20227;-72
2022/02/01 12:09:54;;;;;;;11.85;4.13;;;4.10;99.90;;;;;;5010264;28;20700;-71
2022/02/01 12:12:41;;;;;;;9.05;3.30;;;4.10;99.90;;;;;;5010523;28;20201;-73
2022/02/01 12:15:28;;;;;;;14.75;3.33;;;4.10;99.90;;;;;;5010207;28;20274;-74
2022/02/01 12:18:27;;;;;;;14.52;4.70;;;4.20;99.90;;;;;;5007675;28;20233;-73
2022/02/01 12:21:35;;;;;;;15.27;4.28;;;4.20;99.90;;;;;;5004686;28;20483;-74
2022/02/01 12:24:26;;;;;;;9.07;3.75;;;4.10;99.90;;;;;;5008899;28;20214;-73
2022/02/01 12:27:13;;;;;;;13.05;3.10;;;4.20;99.90;;;;;;5003621;28;20343;-74
2022/02/01 12:30:00;;;;;;;14.48;3.55;;;4.20;99.90;;;;;;5007127;28;20721;-73
2022/02/01 12:32:50;;;;;;;16.25;3.35;;;4.30;99.90;;;;;;5000953;28;20305;-74
2022/02/01 12:35:37;;;;;;;10.55;2.83;;;4.30;99.90;;;;;;5011659;28;20310;-74
2022/02/01 12:38:28;;;;;;;6.30;3.20;;;4.20;99.90;;;;;;5009419;28;20237;-75
2022/02/01 12:41:15;;;;;;;14.15;3.50;;;4.20;99.90;;;;;;5013649;28;20199;-74
2022/02/01 12:47:08;;;;;;;10.05;3.20;;;4.30;99.90;;;;;;5006916;28;20230;-75
2022/02/01 12:49:55;;;;;;;15.93;3.60;;;4.40;99.90;;;;;;5009354;28;20277;-75
2022/02/01 12:52:41;;;;;;;10.13;3.03;;;4.40;99.90;;;;;;5006874;28;20210;-75
2022/02/01 12:55:28;;;;;;;14.13;3.50;;;4.50;99.90;;;;;;5008108;28;20560;-75
2022/02/01 12:58:15;;;;;;;13.32;3.08;;;4.60;99.90;;;;;;5006668;28;20285;-74
2022/02/01 13:01:02;;;;;;;5.93;3.08;;;4.50;99.90;;;;;;5004698;28;20214;-75
2022/02/01 13:03:48;;;;;;;17.88;3.50;;;4.50;99.90;;;;;;5010228;28;20193;-75
2022/02/01 13:06:38;;;;;;;11.02;2.78;;;4.60;99.90;;;;;;5010299;28;20209;-74
2022/02/01 13:15:37;;;;;;;8.75;2.75;;;4.40;99.90;;;;;;5006234;28;20271;-74
2022/02/01 13:20:03;;;;;;;5.55;2.60;;;4.50;99.90;;;;;;5009774;28;20234;-75
2022/02/01 13:21:30;;;;;;;7.40;2.80;;;4.60;99.90;;;;;;5007525;28;20214;-75
2022/02/01 13:24:15;;;;;;;6.03;3.00;;;4.40;99.90;;;;;;5012303;28;20675;-74
2022/02/01 13:27:01;;;;;;;10.50;3.25;;;4.40;99.90;;;;;;5008127;28;20703;-75
2022/02/01 13:29:57;;;;;;;15.88;3.22;;;4.40;99.90;;;;;;5007915;28;20210;-73
2022/02/01 13:32:43;;;;;;;5.82;3.00;;;4.20;99.90;;;;;;4999857;28;20214;-75
2022/02/01 13:35:30;;;;;;;5.53;3.17;;;4.20;99.90;;;;;;5007503;28;20585;-75
2022/02/01 13:38:16;;;;;;;9.77;3.28;;;4.30;99.90;;;;;;5004029;28;20218;-75
2022/02/01 13:41:09;;;;;;;5.65;3.08;;;4.30;99.90;;;;;;5009602;28;20326;-75
2022/02/01 13:43:57;;;;;;;6.35;3.20;;;4.20;99.90;;;;;;4996424;28;20588;-74
2022/02/01 13:46:44;;;;;;;4.63;2.63;;;4.20;99.90;;;;;;5006596;28;20307;-75
2022/02/01 13:49:30;;;;;;;8.27;3.17;;;4.30;99.90;;;;;;5008465;28;20206;-74
2022/02/01 13:52:21;;;;;;;4.93;3.20;;;4.20;99.90;;;;;;5010402;28;20691;-75
2022/02/01 13:55:18;;;;;;;5.15;3.20;;;4.30;99.90;;;;;;5001235;28;20282;-74
2022/02/01 13:58:07;;;;;;;6.53;4.13;;;4.30;99.90;;;;;;5006210;28;20296;-74
2022/02/01 14:00:55;;;;;;;5.80;4.15;;;4.40;99.90;;;;;;5012535;28;20204;-75
2022/02/01 14:03:43;;;;;;;6.32;4.47;;;4.30;99.90;;;;;;5012953;28;20198;-75
2022/02/01 14:06:43;;;;;;;5.40;4.32;;;4.30;99.90;;;;;;5004102;28;20202;-75
2022/02/01 14:09:42;;;;;;;6.40;5.47;;;4.30;99.90;;;;;;5012078;28;20318;-75
2022/02/01 14:27:49;;;;;;;4.93;2.65;;;4.20;99.90;;;;;;5006956;28;20596;-75
2022/02/01 14:33:56;;;;;;;7.68;4.15;;;4.20;99.90;;;;;;5010375;28;20248;-75
2022/02/01 14:36:43;;;;;;;2.15;1.77;;;4.20;99.90;;;;;;5010029;28;20206;-75
2022/02/01 14:43:16;;;;;;;3.13;2.20;;;4.20;99.90;;;;;;5010294;28;20575;-74
2022/02/01 14:45:59;;;;;;;5.70;2.90;;;4.10;99.90;;;;;;5009587;28;20564;-75
2022/02/01 14:48:45;;;;;;;5.25;2.63;;;4.20;99.90;;;;;;5003697;28;20321;-75
2022/02/01 14:51:30;;;;;;;4.45;2.90;;;4.20;99.90;;;;;;5008160;28;20210;-74
2022/02/01 14:54:18;;;;;;;6.95;3.65;;;4.10;99.90;;;;;;5008116;28;20929;-75
2022/02/01 15:15:35;;;;;;;6.90;4.40;;;4.20;99.90;;;;;;5005516;28;20240;-74
2022/02/01 15:18:20;;;;;;;8.18;4.93;;;4.30;99.90;;;;;;5008815;28;20923;-74
2022/02/01 15:21:06;;;;;;;5.47;3.95;;;4.30;99.90;;;;;;5005784;28;20255;-74
2022/02/01 15:23:52;;;;;;;7.18;5.30;;;4.30;99.90;;;;;;5003218;28;20306;-74
2022/02/01 15:26:38;;;;;;;5.43;3.88;;;4.30;99.90;;;;;;5006293;28;20210;-74
2022/02/01 15:29:23;;;;;;;4.63;3.80;;;4.30;99.90;;;;;;5005772;28;20712;-74
2022/02/01 15:32:10;;;;;;;5.55;3.70;;;4.30;99.90;;;;;;5001606;28;20201;-74
2022/02/01 15:34:56;;;;;;;7.00;4.15;;;4.30;99.90;;;;;;5010025;28;20210;-74
2022/02/01 15:37:45;;;;;;;5.63;4.47;;;4.40;99.90;;;;;;5008610;28;20226;-74
2022/02/01 15:59:09;;;;;;;16.73;9.18;;;4.50;99.90;;;;;;4964476;28;20865;-74
2022/02/01 16:01:57;;;;;;;10.35;4.90;;;4.40;99.90;;;;;;4957624;28;20205;-74
2022/02/01 16:04:52;;;;;;;9.05;6.20;;;4.50;99.90;;;;;;4996184;28;20300;-74
2022/02/01 16:07:40;;;;;;;6.60;5.82;;;4.50;99.90;;;;;;5004403;28;20222;-74
2022/02/01 16:10:33;;;;;;;5.55;5.05;;;4.50;99.90;;;;;;5010919;28;20234;-74
2022/02/01 16:13:33;;;;;;;11.23;4.75;;;4.50;99.90;;;;;;5006713;28;20577;-74
2022/02/01 16:16:19;;;;;;;6.90;4.55;;;4.50;99.90;;;;;;5011395;28;20261;-74
2022/02/01 16:19:05;;;;;;;4.97;4.50;;;4.60;99.90;;;;;;5058599;22;20240;-84
2022/02/01 16:21:52;;;;;;;5.43;4.05;;;4.60;99.90;;;;;;5067890;28;20409;-85
2022/02/01 16:24:38;;;;;;;7.03;4.35;;;4.70;99.90;;;;;;5080629;28;20277;-85
2022/02/01 16:27:26;;;;;;;4.72;3.90;;;4.70;99.90;;;;;;5082237;28;20241;-85
2022/02/01 16:30:16;;;;;;;4.03;3.25;;;4.70;99.90;;;;;;5092129;28;20250;-84
2022/02/01 16:33:02;;;;;;;4.13;3.45;;;4.70;99.90;;;;;;5096020;28;20354;-85
2022/02/01 16:35:47;;;;;;;4.70;3.13;;;4.70;99.90;;;;;;5086826;28;20587;-88
2022/02/01 16:38:34;;;;;;;4.15;3.75;;;4.80;99.90;;;;;;5081512;28;20345;-85
2022/02/01 16:41:22;;;;;;;5.28;3.30;;;4.70;99.90;;;;;;5083539;28;20226;-86
2022/02/01 16:44:08;;;;;;;5.15;3.40;;;4.70;99.90;;;;;;5081563;28;20306;-85
2022/02/01 16:46:55;;;;;;;4.13;3.25;;;4.70;99.90;;;;;;5082841;28;20263;-85